Time;durP1;ratioP1;P1;durP2;ratioP2;P2;SDS_P1;SDS_P2;PMS_P1;PMS_P2;Temp;Humidity;BMP_temperature;BMP_pressure;BME280_temperature;BME280_humidity;BME280_pressure;Samples;Min_cycle;Max_cycle;Signal;HPM_P1;HPM_P2
2022/10/04 00:02:25;;;;;;;9.18;6.05;;;8.20;99.90;;;-144.05;83.99;125687.94;5013878;28;20555;-84
2022/10/04 00:05:04;;;;;;;12.55;7.28;;;8.10;99.90;;;-144.05;84.20;125687.94;5002954;28;20041;-83
2022/10/04 00:07:46;;;;;;;12.48;6.53;;;8.10;99.90;;;-144.05;83.90;125687.94;5012979;28;20030;-82
2022/10/04 00:10:33;;;;;;;13.88;7.20;;;8.10;99.90;;;-144.05;84.24;125687.94;5014828;28;20128;-83
2022/10/04 00:13:14;;;;;;;12.45;6.93;;;8.10;99.90;;;-144.05;84.19;125687.94;5014070;28;20033;-85
2022/10/04 00:15:40;;;;;;;15.65;7.10;;;8.10;99.90;;;-144.05;84.29;125687.94;5015785;28;20041;-84
2022/10/04 00:18:29;;;;;;;14.43;6.53;;;8.10;99.90;;;-144.05;84.46;125687.94;5013752;28;20412;-83
2022/10/04 00:21:01;;;;;;;14.05;7.60;;;8.20;99.90;;;-144.05;84.40;125687.94;5014130;28;20033;-85
2022/10/04 00:23:36;;;;;;;16.70;7.60;;;8.20;99.90;;;-144.05;84.56;125687.94;5014282;28;20438;-83
2022/10/04 00:26:14;;;;;;;10.27;6.73;;;8.20;99.90;;;-144.05;84.38;125687.94;5015361;28;20040;-83
2022/10/04 00:28:46;;;;;;;14.63;7.18;;;8.20;99.90;;;-144.05;83.81;125687.94;5013932;28;20049;-87
2022/10/04 00:31:29;;;;;;;10.65;6.82;;;8.20;99.90;;;-144.05;83.91;125687.94;5014185;28;20030;-83
2022/10/04 00:34:07;;;;;;;18.88;6.78;;;8.30;99.90;;;-144.05;83.77;125687.94;5014123;28;20532;-84
2022/10/04 00:36:53;;;;;;;12.05;6.72;;;8.20;99.90;;;-144.05;84.43;125687.94;5016345;28;20056;-83
2022/10/04 00:39:32;;;;;;;12.85;7.20;;;8.30;99.90;;;-144.05;84.33;125687.94;5015510;28;20029;-84
2022/10/04 00:42:41;;;;;;;10.38;6.75;;;8.30;99.90;;;-144.05;84.36;125687.94;5014241;28;20041;-84
2022/10/04 00:45:35;;;;;;;16.17;7.85;;;8.40;99.90;;;-144.05;84.70;125687.94;5014331;28;20165;-85
2022/10/04 00:48:45;;;;;;;11.25;6.97;;;8.40;99.90;;;-144.05;84.23;125687.94;5015873;28;20332;-84
2022/10/04 00:51:39;;;;;;;15.85;7.47;;;8.50;99.90;;;-144.05;84.56;125687.94;5016012;28;20030;-86
2022/10/04 00:54:40;;;;;;;17.95;7.75;;;8.50;99.90;;;-144.05;84.39;125687.94;5014560;28;20492;-86
2022/10/04 00:57:23;;;;;;;14.70;8.35;;;8.50;99.90;;;-144.05;84.61;125687.94;5014688;28;20076;-85
2022/10/04 01:00:05;;;;;;;23.65;9.38;;;8.60;99.90;;;-144.05;85.09;125687.94;5013659;28;20061;-84
2022/10/04 01:02:44;;;;;;;18.33;9.43;;;8.80;99.90;;;-144.05;84.84;125687.94;5013922;28;20521;-84
2022/10/04 01:05:31;;;;;;;13.98;8.15;;;9.00;99.90;;;-144.05;84.27;125687.94;5015384;28;20034;-83
2022/10/04 01:08:08;;;;;;;16.38;8.35;;;9.20;99.90;;;-144.05;84.14;125687.94;5014107;28;20390;-87
2022/10/04 01:10:59;;;;;;;19.25;7.50;;;9.30;99.90;;;-144.05;83.27;125687.94;5014253;28;20030;-86
2022/10/04 01:13:49;;;;;;;15.10;6.43;;;9.30;99.90;;;-144.05;82.54;125687.94;5015453;28;20072;-85
2022/10/04 01:16:27;;;;;;;9.38;5.45;;;9.30;99.90;;;-144.05;82.09;125687.94;5013609;28;20058;-85
2022/10/04 01:18:55;;;;;;;10.65;6.03;;;9.30;99.90;;;-144.05;81.91;125687.94;5017853;28;20044;-84
2022/10/04 01:21:28;;;;;;;8.98;5.57;;;9.30;99.90;;;-144.05;81.50;125687.94;5022673;28;20045;-83
2022/10/04 01:23:57;;;;;;;12.43;6.15;;;9.20;99.90;;;-144.05;81.25;125687.94;5012818;28;20033;-84
2022/10/04 01:26:28;;;;;;;11.85;6.32;;;9.20;99.90;;;-144.05;81.52;125687.94;5012666;28;20030;-84
2022/10/04 01:29:11;;;;;;;13.82;6.35;;;9.10;99.90;;;-144.05;80.97;125687.94;5013739;28;20021;-81
2022/10/04 01:31:57;;;;;;;12.50;4.78;;;9.10;99.90;;;-144.05;81.48;125687.94;5012739;28;20482;-84
2022/10/04 01:34:28;;;;;;;10.73;5.30;;;9.00;99.90;;;-144.05;81.46;125687.94;5012415;28;20091;-84
2022/10/04 01:36:59;;;;;;;13.40;5.68;;;9.00;99.90;;;-144.05;81.38;125687.94;5012124;28;20391;-84
2022/10/04 01:39:27;;;;;;;12.20;5.75;;;8.90;99.90;;;-144.05;81.17;125687.94;5013592;28;20566;-86
2022/10/04 01:42:22;;;;;;;9.05;5.13;;;8.90;99.90;;;-144.05;81.46;125687.94;5012155;28;20076;-84
2022/10/04 01:45:16;;;;;;;9.52;5.55;;;8.90;99.90;;;-144.05;81.44;125687.94;5012207;28;20034;-82
2022/10/04 01:48:02;;;;;;;16.75;6.43;;;8.90;99.90;;;-144.05;82.03;125687.94;5012250;28;20117;-84
2022/10/04 01:50:38;;;;;;;13.82;6.85;;;8.90;99.90;;;-144.05;81.64;125687.94;5011874;28;20126;-84
2022/10/04 01:53:29;;;;;;;8.48;5.63;;;8.90;99.90;;;-144.05;81.66;125687.94;5011845;28;20065;-84
2022/10/04 01:56:15;;;;;;;12.35;6.18;;;8.90;99.90;;;-144.05;82.15;125687.94;5013453;28;20029;-84
2022/10/04 01:59:13;;;;;;;18.25;6.45;;;8.90;99.90;;;-144.05;82.16;125687.94;5011826;28;20128;-83
2022/10/04 02:01:51;;;;;;;15.23;6.50;;;8.90;99.90;;;-144.05;82.22;125687.94;5013637;28;20515;-84
2022/10/04 02:04:27;;;;;;;18.73;6.32;;;9.00;99.90;;;-144.05;82.23;125687.94;5013221;28;20029;-83
2022/10/04 02:07:00;;;;;;;14.38;6.30;;;9.10;99.90;;;-144.05;81.77;125687.94;5012184;28;20037;-84
2022/10/04 02:09:41;;;;;;;10.50;6.30;;;9.10;99.90;;;-144.05;82.01;125687.94;5013047;28;20088;-83
2022/10/04 02:12:08;;;;;;;15.35;6.47;;;9.10;99.90;;;-144.05;81.66;125687.94;5013140;28;20405;-84
2022/10/04 02:14:38;;;;;;;10.43;5.90;;;9.20;99.90;;;-144.05;81.79;125687.94;5013417;28;20034;-84
2022/10/04 02:17:10;;;;;;;10.18;5.80;;;9.20;99.90;;;-144.05;81.24;125687.94;5013457;28;20034;-84
2022/10/04 02:19:43;;;;;;;8.40;5.20;;;9.30;99.90;;;-144.05;81.49;125687.94;5012068;28;20088;-84
2022/10/04 02:22:11;;;;;;;13.32;5.65;;;9.20;99.90;;;-144.05;81.37;125687.94;5011340;28;20026;-82
2022/10/04 02:24:44;;;;;;;11.23;5.55;;;9.30;99.90;;;-144.05;81.39;125687.94;5013171;28;20049;-85
2022/10/04 02:27:11;;;;;;;12.30;5.45;;;9.20;99.90;;;-144.05;81.25;125687.94;5013037;28;20078;-85
2022/10/04 02:29:37;;;;;;;11.82;5.70;;;9.20;99.90;;;-144.05;80.90;125687.94;5012608;28;20076;-85
2022/10/04 02:34:55;;;;;;;12.32;5.28;;;9.00;99.90;;;-144.05;81.19;125687.94;5013341;28;20037;-85
2022/10/04 02:37:26;;;;;;;9.75;5.55;;;9.00;99.90;;;-144.05;81.57;125687.94;5011812;28;20099;-85
2022/10/04 02:40:11;;;;;;;12.13;7.10;;;8.90;99.90;;;-144.05;81.93;125687.94;5011546;28;20030;-85
2022/10/04 02:42:50;;;;;;;13.98;6.63;;;8.90;99.90;;;-144.05;82.27;125687.94;5011584;28;20121;-84
2022/10/04 02:46:11;;;;;;;10.95;6.68;;;8.90;99.90;;;-144.05;82.14;125687.94;5012875;28;20485;-83
2022/10/04 02:48:44;;;;;;;16.38;6.90;;;8.90;99.90;;;-144.05;81.99;125687.94;5012860;28;20093;-84
2022/10/04 02:52:33;;;;;;;15.50;7.07;;;8.90;99.90;;;-144.05;82.46;125687.94;5012781;28;20061;-85
2022/10/04 02:55:27;;;;;;;17.38;6.93;;;9.00;99.90;;;-144.05;82.48;125687.94;5013449;28;20140;-86
2022/10/04 02:57:55;;;;;;;10.32;5.78;;;9.10;99.90;;;-144.05;82.11;125687.94;5014223;28;20034;-84
2022/10/04 03:00:31;;;;;;;10.93;6.25;;;9.20;99.90;;;-144.05;81.56;125687.94;5013196;28;20058;-84
2022/10/04 03:03:46;;;;;;;9.38;5.70;;;9.20;99.90;;;-144.05;81.24;125687.94;5012774;28;20163;-87
2022/10/04 03:06:19;;;;;;;11.52;6.25;;;9.20;99.90;;;-144.05;81.33;125687.94;5012866;28;20125;-85
2022/10/04 03:08:58;;;;;;;15.93;6.93;;;9.20;99.90;;;-144.05;81.68;125687.94;5029381;28;20546;-86
2022/10/04 03:11:33;;;;;;;15.10;6.53;;;9.20;99.90;;;-144.05;81.72;125687.94;5014522;28;20038;-86
2022/10/04 03:14:04;;;;;;;14.20;6.40;;;9.20;99.90;;;-144.05;81.63;125687.94;5013668;28;20029;-86
2022/10/04 03:16:43;;;;;;;10.52;5.85;;;9.30;99.90;;;-144.05;81.32;125687.94;5013987;28;20524;-87
2022/10/04 03:19:14;;;;;;;6.88;4.60;;;9.40;99.90;;;-144.05;80.59;125687.94;5012459;28;20033;-86
2022/10/04 03:21:46;;;;;;;13.05;5.85;;;9.30;99.90;;;-144.05;80.75;125687.94;5012624;28;20037;-86
2022/10/04 03:24:35;;;;;;;11.82;6.22;;;9.30;99.90;;;-144.05;81.04;125687.94;5013177;28;20475;-86
2022/10/04 03:27:15;;;;;;;13.10;6.60;;;9.20;99.90;;;-144.05;81.25;125687.94;5013156;28;20128;-87
2022/10/04 03:29:42;;;;;;;7.40;5.50;;;9.30;99.90;;;-144.05;81.24;125687.94;5015109;28;20026;-89
2022/10/04 03:32:15;;;;;;;15.85;5.60;;;9.40;99.90;;;-144.05;81.07;125687.94;5017862;28;20037;-87
2022/10/04 03:34:55;;;;;;;14.82;5.80;;;9.40;99.90;;;-144.05;80.24;125687.94;5021736;28;20041;-87
2022/10/04 03:37:23;;;;;;;12.77;5.97;;;9.50;99.90;;;-144.05;79.95;125687.94;5011879;28;20184;-86
2022/10/04 03:39:54;;;;;;;17.02;5.85;;;9.50;99.90;;;-144.05;79.87;125687.94;5012796;28;20064;-86
2022/10/04 03:42:30;;;;;;;14.15;5.28;;;9.60;99.90;;;-144.05;79.72;125687.94;5014247;28;20034;-87
2022/10/04 03:45:16;;;;;;;13.77;5.53;;;9.60;99.90;;;-144.05;79.59;125687.94;5016740;28;20033;-85
2022/10/04 03:47:50;;;;;;;9.48;4.80;;;9.60;99.90;;;-144.05;79.79;125687.94;5015373;28;20057;-87
2022/10/04 03:50:26;;;;;;;12.70;5.32;;;9.60;99.90;;;-144.05;80.16;125687.94;5014435;28;20046;-88
2022/10/04 03:53:10;;;;;;;12.43;4.88;;;9.60;99.90;;;-144.05;79.16;125687.94;5014426;28;20022;-85
2022/10/04 03:55:43;;;;;;;13.13;5.32;;;9.60;99.90;;;-144.05;79.16;125687.94;5014118;28;20034;-85
2022/10/04 03:58:19;;;;;;;13.48;5.85;;;9.60;99.90;;;-144.05;79.39;125687.94;5013978;28;20435;-85
2022/10/04 04:01:09;;;;;;;11.98;5.30;;;9.50;99.90;;;-144.05;79.62;125687.94;5015304;28;20053;-84
2022/10/04 04:03:57;;;;;;;10.57;5.13;;;9.60;99.90;;;-144.05;79.15;125687.94;5014128;28;20066;-84
2022/10/04 04:06:39;;;;;;;10.63;5.63;;;9.50;99.90;;;-144.05;79.08;125687.94;5013987;28;20041;-84
2022/10/04 04:09:15;;;;;;;9.27;5.35;;;9.60;99.90;;;-144.05;79.02;125687.94;5013770;28;20026;-83
2022/10/04 04:11:45;;;;;;;16.42;5.38;;;9.60;99.90;;;-144.05;78.80;125687.94;5013565;28;20113;-85
2022/10/04 04:14:26;;;;;;;14.68;5.15;;;9.50;99.90;;;-144.05;78.67;125687.94;5013835;28;20030;-84
2022/10/04 04:17:26;;;;;;;13.32;4.75;;;9.50;99.90;;;-144.05;78.74;125687.94;5013224;28;20217;-84
2022/10/04 04:20:00;;;;;;;20.45;5.00;;;9.50;99.90;;;-144.05;78.45;125687.94;5013393;28;20048;-84
2022/10/04 04:22:30;;;;;;;7.88;4.90;;;9.40;99.90;;;-144.05;78.56;125687.94;5013303;28;20386;-85
2022/10/04 04:25:03;;;;;;;13.63;4.47;;;9.30;99.90;;;-144.05;78.40;125687.94;5015261;28;20026;-84
2022/10/04 04:27:38;;;;;;;9.13;4.78;;;9.20;99.90;;;-144.05;78.85;125687.94;5013727;28;20034;-86
2022/10/04 04:30:07;;;;;;;10.83;5.03;;;9.00;99.90;;;-144.05;79.75;125687.94;5014620;28;20055;-85
2022/10/04 04:32:45;;;;;;;12.43;5.82;;;8.90;99.90;;;-144.05;81.00;125687.94;5015481;28;20359;-87
2022/10/04 04:35:28;;;;;;;13.95;6.22;;;9.00;99.90;;;-144.05;81.42;125687.94;5013934;28;20521;-88
2022/10/04 04:38:20;;;;;;;11.80;5.60;;;9.10;99.90;;;-144.05;80.75;125687.94;5013816;28;20084;-86
2022/10/04 04:40:46;;;;;;;9.38;5.03;;;9.10;99.90;;;-144.05;80.35;125687.94;5014053;28;20038;-85
2022/10/04 04:43:19;;;;;;;11.50;5.72;;;9.20;99.90;;;-144.05;80.10;125687.94;5013947;28;20110;-84
2022/10/04 04:45:49;;;;;;;17.38;6.72;;;9.20;99.90;;;-144.05;79.91;125687.94;5015694;28;20148;-86
2022/10/04 04:48:19;;;;;;;12.57;6.03;;;9.20;99.90;;;-144.05;80.04;125687.94;5013321;28;20041;-85
2022/10/04 04:50:56;;;;;;;11.45;4.97;;;9.20;99.90;;;-144.05;79.67;125687.94;5013307;28;20058;-86
2022/10/04 04:53:30;;;;;;;10.73;5.00;;;9.10;99.90;;;-144.05;79.73;125687.94;5014883;28;20056;-87
2022/10/04 04:56:05;;;;;;;13.23;5.38;;;9.00;99.90;;;-144.05;79.86;125687.94;5015320;28;20458;-86
2022/10/04 04:58:45;;;;;;;7.50;4.70;;;9.00;99.90;;;-144.05;80.06;125687.94;5013491;28;20033;-85
2022/10/04 05:01:46;;;;;;;13.15;5.70;;;8.90;99.90;;;-144.05;80.64;125687.94;5014466;28;20470;-85
2022/10/04 05:04:12;;;;;;;10.98;5.75;;;8.90;99.90;;;-144.05;80.02;125687.94;5014092;28;20064;-85
2022/10/04 05:06:42;;;;;;;12.98;6.22;;;8.80;99.90;;;-144.05;80.19;125687.94;5013773;28;20045;-86
2022/10/04 05:09:27;;;;;;;9.10;5.32;;;8.80;99.90;;;-144.05;80.96;125687.94;5013395;28;20117;-83
2022/10/04 05:12:11;;;;;;;13.88;5.60;;;8.90;99.90;;;-144.05;81.12;125687.94;5013456;28;20169;-86
2022/10/04 05:14:46;;;;;;;8.40;6.03;;;9.00;99.90;;;-144.05;80.98;125687.94;5013921;28;20490;-83
2022/10/04 05:17:26;;;;;;;12.40;6.00;;;9.10;99.90;;;-144.05;80.74;125687.94;5013911;28;20032;-85
2022/10/04 05:19:59;;;;;;;11.93;5.88;;;9.30;99.90;;;-144.05;80.28;125687.94;5013560;28;20563;-85
2022/10/04 05:22:30;;;;;;;11.55;5.50;;;9.30;99.90;;;-144.05;80.09;125687.94;5014058;28;20374;-86
2022/10/04 05:25:06;;;;;;;15.85;6.63;;;9.30;99.90;;;-144.05;79.83;125687.94;5015100;28;20022;-86
2022/10/04 05:27:43;;;;;;;10.13;5.45;;;9.30;99.90;;;-144.05;80.12;125687.94;5013506;28;20145;-88
2022/10/04 05:30:47;;;;;;;14.05;6.63;;;9.30;99.90;;;-144.05;79.79;125687.94;5013629;28;20045;-86
2022/10/04 05:33:25;;;;;;;12.02;5.93;;;9.40;99.90;;;-144.05;79.72;125687.94;5015149;28;20030;-86
2022/10/04 05:37:19;;;;;;;13.60;6.00;;;9.40;99.90;;;-144.05;79.26;125687.94;5013648;28;20034;-85
2022/10/04 05:40:10;;;;;;;15.20;5.82;;;9.40;99.90;;;-144.05;79.27;125687.94;4995895;28;20042;-85
2022/10/04 05:42:44;;;;;;;9.80;5.35;;;9.50;99.90;;;-144.05;79.13;125687.94;5016722;28;20034;-87
2022/10/04 05:45:27;;;;;;;9.48;5.75;;;9.50;99.90;;;-144.05;79.17;125687.94;5024635;28;20026;-85
2022/10/04 05:47:59;;;;;;;14.48;5.63;;;9.50;99.90;;;-144.05;78.70;125687.94;5014083;28;20493;-87
2022/10/04 05:50:42;;;;;;;16.73;5.57;;;9.50;99.90;;;-144.05;78.63;125687.94;5011925;28;20073;-85
2022/10/04 05:53:32;;;;;;;10.23;5.32;;;9.50;99.90;;;-144.05;78.49;125687.94;5012519;28;20202;-84
2022/10/04 05:57:14;;;;;;;11.52;5.53;;;9.50;99.90;;;-144.05;78.33;125687.94;5014167;28;20037;-85
2022/10/04 06:00:16;;;;;;;9.98;4.47;;;9.50;99.90;;;-144.05;78.23;125687.94;4996663;28;20454;-86
2022/10/04 06:03:37;;;;;;;12.05;5.45;;;9.50;99.90;;;-144.05;78.55;125687.94;5013936;28;20482;-84
2022/10/04 06:06:23;;;;;;;11.80;5.70;;;9.40;99.90;;;-144.05;78.35;125687.94;5012890;28;20413;-87
2022/10/04 06:09:39;;;;;;;9.65;5.28;;;9.50;99.90;;;-144.05;79.13;125687.94;5013267;28;20102;-87
2022/10/04 06:12:41;;;;;;;12.90;5.50;;;9.50;99.90;;;-144.05;78.51;125687.94;5013259;28;20561;-85
2022/10/04 06:16:03;;;;;;;10.23;5.05;;;9.60;99.90;;;-144.05;78.26;125687.94;4994015;28;20087;-85
2022/10/04 06:18:56;;;;;;;11.48;5.40;;;9.60;99.90;;;-144.05;78.43;125687.94;5014753;28;20151;-86
2022/10/04 06:21:30;;;;;;;13.45;5.60;;;9.70;99.90;;;-144.05;78.14;125687.94;5013576;28;20076;-86
2022/10/04 06:24:16;;;;;;;12.00;5.10;;;9.70;99.90;;;-144.05;78.24;125687.94;5013530;28;20061;-85
2022/10/04 06:27:28;;;;;;;12.25;5.55;;;9.80;99.90;;;-144.05;78.22;125687.94;5014003;28;20430;-87
2022/10/04 06:30:11;;;;;;;17.83;5.82;;;9.80;99.90;;;-144.05;77.74;125687.94;5015090;28;20030;-85
2022/10/04 06:33:30;;;;;;;10.93;4.63;;;9.90;99.90;;;-144.05;77.04;125687.94;5030578;28;20056;-86
2022/10/04 06:36:34;;;;;;;13.95;5.00;;;9.90;99.90;;;-144.05;77.04;125687.94;5014140;28;20064;-88
2022/10/04 06:39:39;;;;;;;10.43;5.00;;;10.00;99.90;;;-144.05;76.53;125687.94;5015278;28;20022;-85
2022/10/04 06:42:54;;;;;;;10.57;4.72;;;10.10;99.90;;;-144.05;76.37;125687.94;5012958;28;20025;-85
2022/10/04 06:45:39;;;;;;;12.57;4.82;;;10.20;99.90;;;-144.05;76.21;125687.94;5012928;28;20065;-86
2022/10/04 06:48:41;;;;;;;11.93;5.07;;;10.30;99.90;;;-144.05;76.08;125687.94;5013062;28;20026;-86
2022/10/04 06:51:56;;;;;;;12.40;5.43;;;10.30;99.90;;;-144.05;75.87;125687.94;5014285;28;20030;-86
2022/10/04 06:55:32;;;;;;;12.98;4.85;;;10.40;99.90;;;-144.05;75.33;125687.94;5012553;28;20502;-85
2022/10/04 06:59:24;;;;;;;15.70;5.43;;;10.60;99.90;;;-144.05;74.59;125687.94;4973180;28;20031;-85
2022/10/04 07:02:02;;;;;;;8.18;4.32;;;10.70;99.90;;;-144.05;74.21;125687.94;5015198;28;20041;-88
2022/10/04 07:04:40;;;;;;;7.22;4.32;;;10.80;99.90;;;-144.05;73.65;125687.94;5012852;28;20080;-86
2022/10/04 07:07:36;;;;;;;12.32;5.22;;;10.90;99.90;;;-144.05;72.76;125687.94;5013587;28;20426;-88
2022/10/04 07:10:25;;;;;;;11.48;5.30;;;11.10;99.90;;;-144.05;72.07;125687.94;5014378;28;20029;-87
2022/10/04 07:13:27;;;;;;;10.90;4.95;;;11.30;99.90;;;-144.05;71.67;125687.94;5013174;28;20116;-86
2022/10/04 07:16:29;;;;;;;15.98;5.00;;;11.50;99.90;;;-144.05;70.17;125687.94;5013558;28;20328;-85
2022/10/04 07:19:38;;;;;;;8.65;4.32;;;11.70;99.90;;;-144.05;69.64;125687.94;4986606;28;20041;-86
2022/10/04 07:22:06;;;;;;;13.23;4.90;;;11.90;99.90;;;-144.05;70.25;125687.94;5018265;28;20034;-86
2022/10/04 07:25:06;;;;;;;13.60;4.55;;;11.80;99.90;;;-144.05;69.51;125687.94;5018844;28;20026;-85
2022/10/04 07:31:21;;;;;;;10.57;4.03;;;11.90;99.90;;;-144.05;69.09;125687.94;5019854;28;20037;-86
2022/10/04 07:33:59;;;;;;;10.68;4.80;;;11.90;99.90;;;-144.05;69.40;125687.94;5018283;28;20067;-85
2022/10/04 07:36:59;;;;;;;10.20;3.85;;;11.90;99.90;;;-144.05;69.72;125687.94;5020224;28;20124;-86
2022/10/04 07:39:59;;;;;;;7.07;4.03;;;12.00;99.90;;;-144.05;70.02;125687.94;5018111;28;20026;-85
2022/10/04 07:42:51;;;;;;;9.02;4.50;;;12.00;99.90;;;-144.05;70.09;125687.94;5019242;28;20069;-86
2022/10/04 07:45:38;;;;;;;14.55;4.10;;;12.10;99.90;;;-144.05;69.94;125687.94;5021983;28;20022;-84
2022/10/04 07:48:22;;;;;;;11.52;4.90;;;12.10;99.90;;;-144.05;70.18;125687.94;5021234;28;20026;-85
2022/10/04 07:51:18;;;;;;;11.00;4.97;;;12.00;99.90;;;-144.05;69.98;125687.94;5044796;28;20034;-84
2022/10/04 07:54:37;;;;;;;17.33;5.23;;;12.00;99.90;;;-144.05;70.31;125687.94;5016858;28;20037;-86
2022/10/04 07:57:51;;;;;;;16.30;5.43;;;12.00;99.90;;;-144.05;69.70;125687.94;5015294;28;20296;-83
2022/10/04 08:00:26;;;;;;;7.15;4.57;;;12.00;99.90;;;-144.05;69.64;125687.94;5022157;28;20033;-85
2022/10/04 08:04:00;;;;;;;;;;;12.00;99.90;;;-144.05;70.49;125687.94;5022218;28;20052;-83
2022/10/04 08:06:48;;;;;;;9.80;4.50;;;12.00;99.90;;;-144.05;69.72;125687.94;4994240;28;20357;-84
2022/10/04 08:10:19;;;;;;;13.75;5.28;;;12.00;99.90;;;-144.05;69.75;125687.94;5015159;28;20065;-85
2022/10/04 08:13:09;;;;;;;11.10;4.82;;;12.00;99.90;;;-144.05;69.33;125687.94;4975581;28;20031;-84
2022/10/04 08:15:42;;;;;;;11.85;5.00;;;12.10;99.90;;;-144.05;69.04;125687.94;4959545;28;20023;-85
2022/10/04 08:18:23;;;;;;;11.52;5.25;;;12.30;99.90;;;-144.05;68.46;125687.94;5003714;28;20044;-86
2022/10/04 08:21:08;;;;;;;13.10;5.25;;;12.70;99.90;;;-144.05;66.97;125687.94;5016968;28;20030;-86
2022/10/04 08:24:27;;;;;;;12.65;5.72;;;13.10;99.90;;;-144.05;67.02;125687.94;5016189;28;20117;-86
2022/10/04 08:27:27;;;;;;;9.18;4.60;;;13.50;99.90;;;-144.05;64.31;125687.94;5016186;28;20033;-86
2022/10/04 08:30:16;;;;;;;11.32;4.40;;;14.10;99.90;;;-144.05;62.87;125687.94;5017193;28;20179;-85
2022/10/04 08:33:11;;;;;;;10.15;3.90;;;14.40;99.90;;;-144.05;60.44;125687.94;5015489;28;20037;-84
2022/10/04 08:35:44;;;;;;;11.63;4.70;;;14.50;99.90;;;-144.05;62.14;125687.94;5015338;28;20034;-86
2022/10/04 08:38:34;;;;;;;12.82;4.20;;;14.30;99.90;;;-144.05;62.13;125687.94;5015563;28;20026;-86
2022/10/04 08:41:07;;;;;;;10.80;4.45;;;14.00;99.90;;;-144.05;61.25;125687.94;5015720;28;20389;-87
2022/10/04 08:44:22;;;;;;;8.27;4.20;;;14.20;99.90;;;-144.05;59.65;125687.94;5015483;28;20049;-86
2022/10/04 08:47:51;;;;;;;6.32;3.63;;;14.80;99.90;;;-144.05;57.24;125687.94;5015934;28;20030;-86
2022/10/04 08:50:59;;;;;;;6.85;4.00;;;15.50;99.90;;;-144.05;55.81;125687.94;4982178;28;20037;-85
2022/10/04 08:53:47;;;;;;;10.10;3.45;;;16.10;99.90;;;-144.05;54.66;125687.94;5017338;28;20082;-85
2022/10/04 08:57:03;;;;;;;8.35;3.45;;;15.80;99.90;;;-144.05;56.45;125687.94;5015681;28;20080;-85
2022/10/04 09:00:26;;;;;;;9.57;3.92;;;15.40;99.90;;;-144.05;57.81;125687.94;5016468;28;20026;-87
2022/10/04 09:03:10;;;;;;;6.20;3.50;;;15.00;99.90;;;-144.05;57.83;125687.94;5017619;28;20037;-87
2022/10/04 09:05:36;;;;;;;6.28;2.95;;;15.10;99.90;;;-144.05;55.88;125687.94;5015386;28;20064;-83
2022/10/04 09:09:06;;;;;;;7.72;3.45;;;15.50;99.90;;;-144.05;54.56;125687.94;5014888;28;20029;-85
2022/10/04 09:12:05;;;;;;;6.72;2.80;;;15.80;99.90;;;-144.05;53.89;125687.94;5015837;28;20037;-83
2022/10/04 09:15:21;;;;;;;7.55;3.22;;;16.20;99.90;;;-144.05;52.52;125687.94;5015458;28;20391;-84
2022/10/04 09:18:12;;;;;;;10.43;3.55;;;16.50;99.90;;;-144.05;53.16;125687.94;5016688;28;20030;-86
2022/10/04 09:21:16;;;;;;;8.25;3.60;;;16.30;99.90;;;-144.05;53.54;125687.94;5017031;28;20030;-86
2022/10/04 09:24:10;;;;;;;10.43;3.78;;;16.20;99.90;;;-144.05;54.58;125687.94;5016198;28;20117;-84
2022/10/04 09:27:03;;;;;;;8.82;3.58;;;16.30;99.90;;;-144.05;52.29;125687.94;5015525;28;20080;-87
2022/10/04 09:30:18;;;;;;;6.25;3.55;;;16.70;99.90;;;-144.05;52.22;125687.94;5016828;28;20108;-86
2022/10/04 09:33:10;;;;;;;8.27;2.90;;;17.00;99.90;;;-144.05;51.18;125687.94;4986213;28;20041;-86
2022/10/04 09:36:05;;;;;;;7.00;2.90;;;17.20;99.90;;;-144.05;49.91;125687.94;5017282;28;20163;-86
2022/10/04 09:39:29;;;;;;;4.72;2.97;;;17.20;99.90;;;-144.05;50.26;125687.94;5015320;28;20033;-87
2022/10/04 09:42:29;;;;;;;8.90;2.95;;;17.10;99.90;;;-144.05;51.35;125687.94;5001164;28;20038;-84
2022/10/04 09:45:40;;;;;;;6.55;2.60;;;17.30;99.90;;;-144.05;49.38;125687.94;5017248;28;20485;-88
2022/10/04 09:48:31;;;;;;;6.93;2.75;;;17.30;99.90;;;-144.05;50.19;125687.94;5016803;28;20112;-87
2022/10/04 09:51:24;;;;;;;9.38;3.25;;;17.30;99.90;;;-144.05;49.59;125687.94;5018995;28;20097;-86
2022/10/04 09:54:55;;;;;;;8.48;3.25;;;17.40;99.90;;;-144.05;50.31;125687.94;5022540;28;20037;-83
2022/10/04 09:58:00;;;;;;;7.00;3.10;;;17.50;99.90;;;-144.05;48.34;125687.94;5018785;28;20029;-84
2022/10/04 10:00:55;;;;;;;8.32;2.83;;;17.80;99.90;;;-144.05;48.70;125687.94;5018001;28;20030;-87
2022/10/04 10:04:04;;;;;;;5.93;3.17;;;17.90;99.90;;;-144.05;48.49;125687.94;5020100;28;20110;-84
2022/10/04 10:07:15;;;;;;;8.38;3.40;;;17.90;99.90;;;-144.05;48.50;125687.94;5020389;28;20042;-84
2022/10/04 10:14:17;;;;;;;9.52;3.42;;;17.60;99.90;;;-144.05;49.20;125687.94;5009206;28;20044;-86
2022/10/04 10:17:13;;;;;;;6.07;2.88;;;17.60;99.90;;;-144.05;49.06;125687.94;5017747;28;20026;-86
2022/10/04 10:20:01;;;;;;;6.90;2.90;;;17.80;99.90;;;-144.05;48.12;125687.94;5018690;28;20026;-86
2022/10/04 10:23:31;;;;;;;8.13;3.08;;;18.00;99.90;;;-144.05;48.15;125687.94;5017192;28;20038;-85
2022/10/04 10:26:23;;;;;;;4.35;2.20;;;18.20;99.90;;;-144.05;47.41;125687.94;5017156;28;20056;-87
2022/10/04 10:29:27;;;;;;;6.10;2.90;;;18.40;99.90;;;-144.05;46.64;125687.94;5018782;28;20080;-87
2022/10/04 10:32:24;;;;;;;8.50;3.20;;;18.50;99.90;;;-144.05;45.90;125687.94;5017455;28;20036;-83
2022/10/04 10:35:26;;;;;;;6.53;2.95;;;18.50;99.90;;;-144.05;46.04;125687.94;5018483;28;20071;-86
2022/10/04 10:38:37;;;;;;;7.07;2.60;;;18.70;99.90;;;-144.05;47.66;125687.94;5017768;28;20025;-85
2022/10/04 10:41:42;;;;;;;6.30;2.80;;;18.70;99.90;;;-144.05;46.82;125687.94;5018974;28;20037;-86
2022/10/04 10:44:38;;;;;;;6.57;2.70;;;19.00;99.90;;;-144.05;46.37;125687.94;5033859;28;20034;-88
2022/10/04 10:47:50;;;;;;;5.07;2.85;;;19.10;99.90;;;-144.05;47.13;125687.94;5019927;28;20041;-87
2022/10/04 10:51:02;;;;;;;7.18;2.70;;;19.10;99.90;;;-144.05;45.90;125687.94;5019493;28;20042;-87
2022/10/04 10:54:17;;;;;;;7.30;2.47;;;19.10;99.90;;;-144.05;45.60;125687.94;5019721;28;20497;-88
2022/10/04 10:57:58;;;;;;;5.28;2.70;;;19.10;99.90;;;-144.05;44.81;125687.94;5018908;28;20049;-85
2022/10/04 11:01:05;;;;;;;6.95;2.50;;;19.20;99.90;;;-144.05;45.96;125687.94;5018235;28;20037;-86
2022/10/04 11:04:37;;;;;;;5.63;2.60;;;19.20;99.90;;;-144.05;45.11;125687.94;5018972;28;20034;-87
2022/10/04 11:07:31;;;;;;;7.32;2.80;;;19.30;99.90;;;-144.05;45.04;125687.94;5018858;28;20502;-87
2022/10/04 11:10:31;;;;;;;6.80;2.92;;;19.40;99.90;;;-144.05;43.58;125687.94;5018033;28;20085;-86
2022/10/04 11:13:49;;;;;;;7.20;3.03;;;19.60;99.90;;;-144.05;43.86;125687.94;5017931;28;20038;-88
2022/10/04 11:16:46;;;;;;;5.40;2.45;;;19.60;99.90;;;-144.05;44.79;125687.94;5018827;28;20029;-85
2022/10/04 11:20:16;;;;;;;4.57;2.40;;;19.90;99.90;;;-144.05;42.43;125687.94;5018660;28;20080;-83
2022/10/04 11:23:50;;;;;;;6.38;2.47;;;20.20;99.90;;;-144.05;43.40;125687.94;5019215;28;20033;-85
2022/10/04 11:26:31;;;;;;;5.82;2.60;;;20.40;99.90;;;-144.05;42.88;125687.94;5033060;28;20030;-87
2022/10/04 11:29:10;;;;;;;7.32;2.53;;;20.40;99.90;;;-144.05;41.07;125687.94;5017990;28;20030;-87
2022/10/04 11:32:00;;;;;;;11.57;2.80;;;20.70;99.90;;;-144.05;40.22;125687.94;5018891;28;20034;-88
2022/10/04 11:35:19;;;;;;;5.40;2.60;;;20.70;99.90;;;-144.05;41.67;125687.94;5017307;28;20034;-84
2022/10/04 11:38:23;;;;;;;6.20;2.33;;;20.40;99.90;;;-144.05;41.97;125687.94;5018725;28;20033;-86
2022/10/04 11:41:32;;;;;;;5.57;2.38;;;20.20;99.90;;;-144.05;42.80;125687.94;5017251;28;20072;-86
2022/10/04 11:44:33;;;;;;;5.13;2.20;;;20.00;99.90;;;-144.05;41.10;125687.94;5018042;28;20060;-89
2022/10/04 11:47:29;;;;;;;5.35;2.50;;;20.30;99.90;;;-144.05;41.13;125687.94;5017863;28;20049;-88